createdAt,value
2023-05-25T03:28:00.915Z,3.83
2023-05-25T03:30:31.850Z,3.00
2023-05-25T03:33:00.312Z,3.83
2023-05-25T03:35:34.064Z,4.13
2023-05-25T03:38:02.688Z,3.55
2023-05-25T03:40:30.896Z,3.20
2023-05-25T03:42:59.392Z,3.53
2023-05-25T03:45:27.477Z,3.20
2023-05-25T03:47:57.309Z,3.03
2023-05-25T03:50:25.700Z,3.70
2023-05-25T03:52:54.170Z,3.55
2023-05-25T03:55:22.361Z,3.22
2023-05-25T03:57:52.047Z,2.90
2023-05-25T04:00:22.352Z,3.53
2023-05-25T04:02:51.391Z,3.00
2023-05-25T04:05:21.202Z,2.95
2023-05-25T04:07:49.637Z,3.00
2023-05-25T04:10:17.846Z,3.38
2023-05-25T04:12:46.102Z,3.08
2023-05-25T04:15:14.799Z,3.08
2023-05-25T04:17:55.430Z,2.97
2023-05-25T04:20:25.322Z,3.10
2023-05-25T04:22:53.925Z,3.53
2023-05-25T04:29:35.297Z,3.22
2023-05-25T04:32:10.292Z,3.20
2023-05-25T04:34:52.639Z,3.60
2023-05-25T04:42:13.412Z,3.25
2023-05-25T04:44:42.241Z,3.58
2023-05-25T04:47:12.685Z,3.55
2023-05-25T04:49:41.161Z,3.08
2023-05-25T04:52:10.282Z,3.30
2023-05-25T04:54:40.223Z,4.03
2023-05-25T04:57:10.002Z,3.30
2023-05-25T04:59:40.288Z,3.47
2023-05-25T05:02:09.319Z,3.33
2023-05-25T05:04:40.504Z,3.85
2023-05-25T05:07:10.589Z,3.40
2023-05-25T05:09:39.225Z,3.97
2023-05-25T05:12:10.620Z,3.67
2023-05-25T05:14:47.219Z,3.78
2023-05-25T05:17:16.134Z,4.20
2023-05-25T05:19:44.710Z,4.38
2023-05-25T05:22:16.476Z,3.90
2023-05-25T05:24:46.780Z,3.95
2023-05-25T05:27:22.981Z,4.32
2023-05-25T05:29:58.055Z,3.67
2023-05-25T05:32:27.343Z,4.35
2023-05-25T05:34:57.061Z,4.93
2023-05-25T05:37:51.690Z,4.25
2023-05-25T05:40:20.344Z,4.43
2023-05-25T05:42:48.819Z,4.50
2023-05-25T05:45:19.247Z,4.10
2023-05-25T05:47:47.857Z,4.20
2023-05-25T05:50:16.711Z,5.03
2023-05-25T05:52:45.447Z,4.57
2023-05-25T05:55:14.152Z,4.97
2023-05-25T05:57:43.612Z,4.70
2023-05-25T06:00:13.804Z,4.82
2023-05-25T06:02:46.989Z,5.10
2023-05-25T06:05:21.681Z,4.25
2023-05-25T06:07:50.568Z,4.75
2023-05-25T06:10:21.362Z,5.15
2023-05-25T06:12:50.492Z,4.75
2023-05-25T06:15:19.034Z,4.90
2023-05-25T06:17:51.015Z,4.70
2023-05-25T06:20:19.841Z,5.00
2023-05-25T06:22:48.914Z,4.45
2023-05-25T06:25:17.947Z,4.45
2023-05-25T06:27:46.881Z,4.85
2023-05-25T06:30:15.632Z,4.38
2023-05-25T06:32:44.848Z,4.90
2023-05-25T06:35:20.163Z,5.68
2023-05-25T06:37:52.090Z,4.95
2023-05-25T06:40:21.540Z,4.45
2023-05-25T06:42:49.924Z,5.15
2023-05-25T06:45:36.969Z,5.53
2023-05-25T06:48:06.696Z,4.90
2023-05-25T06:50:36.828Z,5.57
2023-05-25T06:53:05.491Z,5.68
2023-05-25T06:55:33.905Z,5.13
2023-05-25T06:58:02.510Z,5.38
2023-05-25T07:00:30.928Z,5.78
2023-05-25T07:02:59.349Z,5.85
2023-05-25T07:05:27.829Z,5.45
2023-05-25T07:07:57.980Z,5.68
2023-05-25T07:10:26.634Z,5.50
2023-05-25T07:12:55.044Z,5.72
2023-05-25T07:15:25.146Z,6.15
2023-05-25T07:17:53.668Z,5.97
2023-05-25T07:20:23.260Z,6.15
2023-05-25T07:22:53.754Z,5.88
2023-05-25T07:25:23.865Z,5.60
2023-05-25T07:27:55.685Z,5.82
2023-05-25T07:30:24.326Z,5.55
2023-05-25T07:32:52.950Z,5.43
2023-05-25T07:35:21.417Z,5.07
2023-05-25T07:37:57.942Z,5.13
2023-05-25T07:42:56.257Z,5.40
2023-05-25T07:45:24.762Z,5.85
2023-05-25T07:47:53.345Z,5.80
2023-05-25T07:50:21.806Z,5.25
2023-05-25T07:52:50.366Z,5.75
2023-05-25T07:55:20.627Z,6.47
2023-05-25T07:57:51.901Z,5.35
2023-05-25T08:00:21.237Z,5.35
2023-05-25T08:02:49.787Z,5.10
2023-05-25T08:05:18.721Z,5.63
2023-05-25T08:07:47.097Z,5.28
2023-05-25T08:10:15.687Z,5.43
2023-05-25T08:12:49.416Z,5.20
2023-05-25T08:15:20.422Z,5.15
2023-05-25T08:17:51.318Z,5.65
2023-05-25T08:20:20.033Z,5.80
2023-05-25T08:22:48.477Z,5.25
2023-05-25T08:25:17.006Z,5.47
2023-05-25T08:27:45.381Z,5.13
2023-05-25T08:30:14.109Z,5.57
2023-05-25T08:32:44.169Z,5.38
2023-05-25T08:35:14.547Z,5.60
2023-05-25T08:37:43.980Z,5.57
2023-05-25T08:40:16.770Z,5.25
2023-05-25T08:42:45.639Z,5.78
2023-05-25T08:45:26.371Z,6.38
2023-05-25T08:48:08.505Z,5.35
2023-05-25T08:53:12.268Z,6.40
2023-05-25T08:55:43.947Z,7.45
2023-05-25T08:58:17.924Z,7.80
2023-05-25T09:00:53.312Z,7.20
2023-05-25T09:03:24.221Z,7.95
2023-05-25T09:05:52.813Z,7.60
2023-05-25T09:08:22.116Z,7.80
2023-05-25T09:10:52.621Z,7.55
2023-05-25T09:13:22.852Z,8.18
2023-05-25T09:15:53.308Z,7.03
2023-05-25T09:18:23.159Z,7.82
2023-05-25T09:20:52.170Z,7.18
2023-05-25T09:23:21.660Z,7.30
2023-05-25T09:25:51.383Z,7.53
2023-05-25T09:30:52.281Z,6.60
2023-05-25T09:33:22.057Z,6.55
2023-05-25T09:35:52.025Z,6.75
2023-05-25T09:38:20.866Z,6.60
2023-05-25T09:40:49.358Z,6.78
2023-05-25T09:43:28.485Z,6.40
2023-05-25T09:46:01.196Z,6.78
2023-05-25T09:48:30.884Z,6.68
2023-05-25T09:50:59.166Z,6.72
2023-05-25T09:53:27.914Z,6.45
2023-05-25T09:55:57.863Z,6.35
2023-05-25T09:58:27.443Z,5.45
2023-05-25T10:00:55.987Z,5.93
2023-05-25T10:03:24.234Z,5.70
2023-05-25T10:05:55.123Z,5.80
2023-05-25T10:08:28.775Z,5.63
2023-05-25T10:10:58.114Z,6.35
2023-05-25T10:13:31.224Z,5.40
2023-05-25T10:16:00.036Z,5.82
2023-05-25T10:18:33.404Z,6.05
2023-05-25T10:21:05.721Z,5.28
2023-05-25T10:23:40.622Z,4.90
2023-05-25T10:26:11.131Z,4.85
2023-05-25T10:28:40.726Z,5.30
2023-05-25T10:31:10.072Z,5.18
2023-05-25T10:33:38.581Z,5.05
2023-05-25T10:36:11.139Z,5.25
2023-05-25T10:38:42.291Z,4.85
2023-05-25T10:41:11.722Z,4.63
2023-05-25T10:43:41.433Z,5.25
2023-05-25T10:46:10.385Z,4.90
2023-05-25T10:48:39.329Z,5.47
2023-05-25T10:51:11.855Z,5.00
2023-05-25T10:53:43.771Z,4.45
2023-05-25T10:56:13.732Z,5.28
2023-05-25T10:58:46.886Z,5.03
2023-05-25T11:01:16.726Z,5.38
2023-05-25T11:04:15.147Z,5.60
2023-05-25T11:07:09.509Z,5.38
2023-05-25T11:09:44.045Z,5.50
2023-05-25T11:12:22.947Z,4.43
2023-05-25T11:15:11.396Z,4.90
2023-05-25T11:17:48.222Z,4.97
2023-05-25T11:20:24.377Z,5.15
2023-05-25T11:22:54.108Z,5.00
2023-05-25T11:25:39.684Z,5.50
2023-05-25T11:28:11.118Z,5.07
2023-05-25T11:30:42.407Z,5.00
2023-05-25T11:33:11.516Z,5.10
2023-05-25T11:35:40.470Z,4.55
2023-05-25T11:38:11.494Z,4.90
2023-05-25T11:40:40.592Z,5.20
2023-05-25T11:43:10.101Z,5.13
2023-05-25T11:45:38.615Z,5.65
2023-05-25T11:48:07.227Z,5.35
2023-05-25T11:50:35.804Z,4.85
2023-05-25T11:53:07.562Z,4.80
2023-05-25T11:55:41.346Z,5.15
2023-05-25T11:58:09.670Z,4.72
2023-05-25T12:00:39.334Z,4.53
2023-05-25T12:03:10.908Z,5.00
2023-05-25T12:05:39.951Z,4.18
2023-05-25T12:08:08.376Z,5.03
2023-05-25T12:10:51.498Z,4.10
2023-05-25T12:13:19.872Z,4.90
2023-05-25T12:15:48.323Z,4.43
2023-05-25T12:18:16.737Z,5.53
2023-05-25T12:20:45.350Z,5.65
2023-05-25T12:23:14.047Z,4.80
2023-05-25T12:25:51.016Z,5.47
2023-05-25T12:28:19.956Z,6.10
2023-05-25T12:30:48.743Z,5.93
2023-05-25T12:33:17.365Z,7.30
2023-05-25T12:35:47.750Z,6.07
2023-05-25T12:38:18.177Z,6.03
2023-05-25T12:40:48.500Z,6.07
2023-05-25T12:43:17.934Z,7.05
2023-05-25T12:45:46.293Z,6.35
2023-05-25T12:48:14.851Z,6.88
2023-05-25T12:50:58.502Z,6.55
2023-05-25T12:53:27.671Z,6.40
2023-05-25T12:56:06.910Z,6.53
2023-05-25T12:58:35.222Z,7.05
2023-05-25T13:01:03.514Z,6.15
2023-05-25T13:03:32.608Z,6.97
2023-05-25T13:06:05.095Z,6.97
2023-05-25T13:08:33.344Z,6.40
2023-05-25T13:11:04.081Z,6.07
2023-05-25T13:13:33.811Z,6.25
2023-05-25T13:16:03.515Z,6.85
2023-05-25T13:18:31.857Z,6.72
2023-05-25T13:21:00.869Z,5.70
2023-05-25T13:23:29.644Z,5.82
2023-05-25T13:25:58.202Z,6.25
2023-05-25T13:28:27.903Z,6.30
2023-05-25T13:30:58.137Z,5.60
2023-05-25T13:33:26.457Z,5.10
2023-05-25T13:36:08.535Z,6.35
2023-05-25T13:38:37.844Z,5.65
2023-05-25T13:41:06.095Z,5.85
2023-05-25T13:43:34.387Z,6.30
2023-05-25T13:46:04.346Z,6.18
2023-05-25T13:48:32.760Z,5.95
2023-05-25T13:51:01.101Z,5.75
2023-05-25T13:53:29.318Z,5.85
2023-05-25T13:55:57.706Z,5.25
2023-05-25T13:58:26.137Z,5.43
2023-05-25T14:00:54.342Z,4.97
2023-05-25T14:03:24.319Z,5.47
2023-05-25T14:05:54.260Z,5.18
2023-05-25T14:08:22.870Z,4.85
2023-05-25T14:10:51.135Z,4.95
2023-05-25T14:13:19.445Z,4.78
2023-05-25T14:15:48.032Z,4.40
2023-05-25T14:18:16.740Z,4.60
2023-05-25T14:20:46.606Z,3.95
2023-05-25T14:23:18.475Z,4.18
2023-05-25T14:25:47.376Z,4.00
2023-05-25T14:28:15.826Z,3.83
2023-05-25T14:30:44.128Z,3.50
2023-05-25T14:33:15.980Z,3.90
2023-05-25T14:35:46.033Z,3.72
2023-05-25T14:38:14.472Z,3.63
2023-05-25T14:40:42.690Z,3.75
2023-05-25T14:43:10.945Z,3.70
2023-05-25T14:45:39.052Z,4.20
2023-05-25T14:48:16.127Z,4.45
2023-05-25T14:50:46.919Z,4.60
2023-05-25T14:53:15.457Z,4.45
2023-05-25T14:55:44.208Z,4.88
2023-05-25T14:58:13.169Z,5.13
2023-05-25T15:00:41.624Z,4.32
2023-05-25T15:03:09.878Z,4.85
2023-05-25T15:05:38.292Z,4.50
2023-05-25T15:08:08.002Z,4.82
2023-05-25T15:10:36.361Z,4.30
2023-05-25T15:13:04.775Z,3.75
2023-05-25T15:15:33.062Z,4.35
2023-05-25T15:18:01.345Z,3.97
2023-05-25T15:20:29.787Z,4.10
2023-05-25T15:22:57.923Z,4.30
2023-05-25T15:27:58.956Z,4.88
2023-05-25T15:30:28.103Z,4.80
2023-05-25T15:32:56.441Z,4.50
2023-05-25T15:35:31.228Z,5.00
2023-05-25T15:37:59.725Z,4.50
2023-05-25T15:40:29.532Z,4.65
2023-05-25T15:42:57.914Z,4.95
2023-05-25T15:45:26.585Z,4.93
2023-05-25T15:47:55.076Z,5.05
2023-05-25T15:50:23.463Z,4.93
2023-05-25T15:52:51.619Z,4.75
2023-05-25T15:55:19.710Z,5.25
2023-05-25T15:57:49.508Z,4.80
2023-05-25T16:00:18.478Z,5.13
2023-05-25T16:02:46.621Z,5.40
2023-05-25T16:05:15.216Z,5.30
2023-05-25T16:07:43.656Z,5.75
2023-05-25T16:10:11.915Z,6.70
2023-05-25T16:12:40.148Z,5.85
2023-05-25T16:15:10.946Z,6.40
2023-05-25T16:17:39.269Z,5.85
2023-05-25T16:20:09.320Z,6.07
2023-05-25T16:22:37.628Z,5.50
2023-05-25T16:25:07.632Z,5.72
2023-05-25T16:27:35.889Z,4.93
2023-05-25T16:30:04.311Z,5.70
2023-05-25T16:32:34.535Z,5.47
2023-05-25T16:35:11.096Z,5.15
2023-05-25T16:40:08.678Z,4.88
2023-05-25T16:42:37.189Z,5.13
2023-05-25T16:45:06.415Z,5.35
2023-05-25T16:47:36.602Z,5.38
2023-05-25T16:50:05.724Z,5.15
2023-05-25T16:52:33.885Z,5.68
2023-05-25T16:55:02.320Z,6.13
2023-05-25T16:57:30.659Z,8.13
2023-05-25T16:59:59.095Z,9.63
2023-05-25T17:02:27.524Z,9.05
2023-05-25T17:04:57.494Z,7.50
2023-05-25T17:07:26.113Z,7.47
2023-05-25T17:09:55.809Z,6.70
2023-05-25T17:12:24.610Z,6.50
2023-05-25T17:14:54.390Z,6.43
2023-05-25T17:17:24.241Z,6.10
2023-05-25T17:19:54.221Z,7.03
2023-05-25T17:22:24.126Z,7.10
2023-05-25T17:24:52.677Z,7.28
2023-05-25T17:27:20.884Z,7.25
2023-05-25T17:29:49.196Z,6.40
2023-05-25T17:32:17.518Z,6.88
2023-05-25T17:34:46.217Z,7.47
2023-05-25T17:37:14.393Z,7.88
2023-05-25T17:39:44.193Z,7.30
2023-05-25T17:42:12.701Z,6.47
2023-05-25T17:44:43.001Z,6.40
2023-05-25T17:47:11.535Z,7.47
2023-05-25T17:49:39.864Z,7.93
2023-05-25T17:52:08.254Z,7.20
2023-05-25T17:54:36.560Z,7.40
2023-05-25T17:57:07.003Z,7.38
2023-05-25T17:59:37.079Z,6.57
2023-05-25T18:02:06.040Z,6.03
2023-05-25T18:04:34.683Z,6.43
2023-05-25T18:07:04.680Z,7.13
2023-05-25T18:09:33.765Z,6.28
2023-05-25T18:12:02.491Z,6.72
2023-05-25T18:14:35.652Z,6.57
2023-05-25T18:17:06.160Z,6.28
2023-05-25T18:19:34.478Z,6.00
2023-05-25T18:22:02.838Z,6.70
2023-05-25T18:24:33.017Z,6.40
2023-05-25T18:27:04.176Z,6.40
2023-05-25T18:29:34.151Z,6.63
2023-05-25T18:32:02.554Z,6.20
2023-05-25T18:34:31.326Z,6.50
2023-05-25T18:37:00.746Z,6.18
2023-05-25T18:39:29.423Z,7.40
2023-05-25T18:41:57.775Z,6.95
2023-05-25T18:44:27.173Z,6.47
2023-05-25T18:46:57.675Z,7.10
2023-05-25T18:49:26.686Z,6.80
2023-05-25T18:51:55.210Z,7.72
2023-05-25T18:54:25.307Z,8.20
2023-05-25T18:56:54.414Z,8.57
2023-05-25T18:59:23.747Z,8.15
2023-05-25T19:01:52.569Z,7.65
2023-05-25T19:04:22.385Z,7.13
2023-05-25T19:06:50.718Z,7.63
2023-05-25T19:09:19.182Z,7.57
2023-05-25T19:11:47.674Z,6.90
2023-05-25T19:14:15.997Z,7.50
2023-05-25T19:16:48.073Z,7.22
2023-05-25T19:19:19.909Z,7.65
2023-05-25T19:21:51.400Z,7.30
2023-05-25T19:24:21.407Z,6.30
2023-05-25T19:26:51.054Z,5.80
2023-05-25T19:29:20.752Z,6.47
2023-05-25T19:31:49.621Z,6.93
2023-05-25T19:34:19.453Z,6.57
2023-05-25T19:36:53.744Z,7.80
2023-05-25T19:39:32.502Z,6.93
2023-05-25T19:42:03.887Z,7.03
2023-05-25T19:44:37.810Z,6.80
2023-05-25T19:47:08.932Z,7.68
2023-05-25T19:49:39.010Z,7.78
2023-05-25T19:52:07.523Z,8.32
2023-05-25T19:54:38.478Z,7.95
2023-05-25T19:57:08.319Z,7.38
2023-05-25T19:59:39.078Z,7.80
2023-05-25T20:02:07.592Z,7.53
2023-05-25T20:04:36.369Z,7.90
2023-05-25T20:07:06.391Z,7.10
2023-05-25T20:09:38.830Z,7.50
2023-05-25T20:12:08.040Z,7.15
2023-05-25T20:14:36.585Z,6.78
2023-05-25T20:17:05.550Z,7.50
2023-05-25T20:19:33.905Z,7.82
2023-05-25T20:22:11.895Z,6.63
2023-05-25T20:24:41.920Z,7.03
2023-05-25T20:27:12.289Z,7.15
2023-05-25T20:29:45.120Z,7.85
2023-05-25T20:32:14.723Z,7.40
2023-05-25T20:34:42.908Z,7.30
2023-05-25T20:37:12.037Z,7.68
2023-05-25T20:39:42.938Z,7.13
2023-05-25T20:42:16.781Z,6.35
2023-05-25T20:44:46.129Z,6.40
2023-05-25T20:47:14.101Z,6.53
2023-05-25T20:49:42.462Z,7.45
2023-05-25T20:52:12.134Z,6.72
2023-05-25T20:54:50.811Z,7.10
2023-05-25T20:57:19.270Z,7.13
2023-05-25T20:59:49.019Z,6.22
2023-05-25T21:02:17.273Z,6.45
2023-05-25T21:04:46.079Z,6.90
2023-05-25T21:07:19.054Z,7.60
2023-05-25T21:09:48.707Z,6.85
2023-05-25T21:12:17.218Z,8.20
2023-05-25T21:14:46.807Z,7.40
2023-05-25T21:17:17.350Z,7.65
2023-05-25T21:19:45.425Z,8.63
2023-05-25T21:22:13.824Z,7.53
2023-05-25T21:24:42.020Z,8.05
2023-05-25T21:27:12.204Z,7.63
2023-05-25T21:29:40.836Z,8.55
2023-05-25T21:32:09.617Z,10.18
2023-05-25T21:34:37.827Z,10.15
2023-05-25T21:37:05.971Z,11.57
2023-05-25T21:39:34.122Z,11.63
2023-05-25T21:42:02.690Z,12.02
2023-05-25T21:44:32.312Z,12.30
2023-05-25T21:47:00.535Z,11.13
2023-05-25T21:49:28.663Z,11.02
2023-05-25T21:51:57.558Z,11.63
2023-05-25T21:54:26.194Z,10.18
2023-05-25T21:56:54.836Z,10.52
2023-05-25T21:59:23.030Z,9.48
2023-05-25T22:01:52.581Z,10.10
2023-05-25T22:04:20.853Z,8.55
2023-05-25T22:06:48.739Z,9.57
2023-05-25T22:09:17.263Z,9.10
2023-05-25T22:11:45.208Z,9.07
2023-05-25T22:14:13.156Z,8.60
2023-05-25T22:16:41.330Z,8.75
2023-05-25T22:19:11.057Z,9.90
2023-05-25T22:21:39.179Z,10.80
2023-05-25T22:24:07.661Z,10.50
2023-05-25T22:26:35.729Z,11.73
2023-05-25T22:29:04.024Z,10.52
2023-05-25T22:31:32.217Z,10.65
2023-05-25T22:34:00.492Z,10.52
2023-05-25T22:36:30.009Z,9.73
2023-05-25T22:38:58.370Z,10.10
2023-05-25T22:41:26.914Z,10.30
2023-05-25T22:43:55.020Z,10.73
2023-05-25T22:46:23.642Z,10.00
2023-05-25T22:48:52.127Z,10.35
2023-05-25T22:51:20.179Z,12.18
2023-05-25T22:53:49.954Z,12.05
2023-05-25T22:56:18.028Z,11.13
2023-05-25T22:58:46.167Z,11.93
2023-05-25T23:01:14.365Z,11.43
2023-05-25T23:03:42.640Z,10.55
2023-05-25T23:06:10.815Z,11.57
2023-05-25T23:08:39.712Z,10.07
2023-05-25T23:11:09.280Z,9.82
2023-05-25T23:13:37.467Z,8.77
2023-05-25T23:16:05.830Z,8.63
2023-05-25T23:18:33.979Z,8.82
2023-05-25T23:21:02.052Z,8.25
2023-05-25T23:27:38.978Z,7.22
2023-05-25T23:30:08.401Z,7.43
2023-05-25T23:32:37.269Z,7.07
2023-05-25T23:35:06.931Z,7.13
2023-05-25T23:37:35.862Z,6.50
2023-05-25T23:40:05.658Z,7.30
2023-05-25T23:42:40.732Z,7.30
2023-05-25T23:45:10.340Z,8.43
2023-05-25T23:47:38.687Z,8.80
2023-05-25T23:50:08.028Z,7.93
2023-05-25T23:52:36.557Z,8.23
2023-05-25T23:55:06.859Z,8.85
2023-05-25T23:57:37.022Z,7.90
